Time;durP1;ratioP1;P1;durP2;ratioP2;P2;SDS_P1;SDS_P2;PMS_P1;PMS_P2;Temp;Humidity;BMP_temperature;BMP_pressure;BME280_temperature;BME280_humidity;BME280_pressure;Samples;Min_cycle;Max_cycle;Signal;HPM_P1;HPM_P2
2021/09/18 00:01:59;;;;;;;12.32;10.20;;;;;;;13.28;100.00;100390.09;5007362;28;20099;-71
2021/09/18 00:04:43;;;;;;;12.32;10.23;;;;;;;13.26;100.00;100389.44;5007526;28;20053;-71
2021/09/18 00:07:27;;;;;;;14.63;11.73;;;;;;;13.23;100.00;100395.06;5021341;28;20048;-71
2021/09/18 00:10:10;;;;;;;13.10;11.57;;;;;;;13.22;100.00;100390.72;5021001;28;20044;-70
2021/09/18 00:12:54;;;;;;;12.70;10.90;;;;;;;13.19;100.00;100388.38;5007391;28;20108;-72
2021/09/18 00:15:38;;;;;;;16.38;12.52;;;;;;;13.17;100.00;100393.88;5035999;28;20095;-71
2021/09/18 00:18:22;;;;;;;14.18;11.30;;;;;;;13.15;100.00;100392.38;5007487;28;20419;-71
2021/09/18 00:21:06;;;;;;;;;;;;;;;13.13;100.00;100389.84;5036178;28;20080;-71
2021/09/18 00:23:50;;;;;;;12.38;10.40;;;;;;;13.11;100.00;100399.03;5036285;28;20433;-71
2021/09/18 00:26:34;;;;;;;14.70;10.88;;;;;;;13.09;100.00;100393.84;5021004;28;20092;-71
2021/09/18 00:29:18;;;;;;;13.85;11.32;;;;;;;13.06;100.00;100398.66;5007172;28;20052;-72
2021/09/18 00:32:03;;;;;;;14.20;11.52;;;;;;;13.02;100.00;100399.97;5020591;28;20080;-71
2021/09/18 00:34:47;;;;;;;14.30;10.85;;;;;;;12.99;100.00;100387.75;5006998;28;20048;-71
2021/09/18 00:37:31;;;;;;;13.27;10.88;;;;;;;12.99;100.00;100389.56;5020558;28;20053;-71
2021/09/18 00:40:15;;;;;;;13.00;11.55;;;;;;;12.98;100.00;100391.44;5024903;28;20047;-70
2021/09/18 00:42:59;;;;;;;18.70;10.80;;;;;;;12.97;100.00;100395.06;5035672;28;20099;-71
2021/09/18 00:45:43;;;;;;;12.85;9.98;;;;;;;12.93;100.00;100393.72;5034618;28;20187;-71
2021/09/18 00:48:27;;;;;;;15.68;10.38;;;;;;;12.90;100.00;100395.81;5034657;28;20179;-72
2021/09/18 00:51:11;;;;;;;12.73;11.13;;;;;;;12.86;100.00;100395.28;5034174;28;20160;-71
2021/09/18 00:53:55;;;;;;;13.15;10.48;;;;;;;12.85;100.00;100398.16;5035441;28;20057;-71
2021/09/18 00:56:41;;;;;;;16.52;9.68;;;;;;;12.81;100.00;100401.28;5020222;28;20060;-71
2021/09/18 00:59:25;;;;;;;12.07;10.80;;;;;;;12.78;100.00;100399.75;5020280;28;20102;-72
2021/09/18 01:02:10;;;;;;;14.75;10.00;;;;;;;12.78;100.00;100404.28;5034364;28;20460;-71
2021/09/18 01:04:54;;;;;;;13.15;10.63;;;;;;;12.75;100.00;100400.06;5033953;28;20052;-71
2021/09/18 01:07:38;;;;;;;13.60;11.35;;;;;;;12.71;100.00;100401.34;5034246;28;20080;-72
2021/09/18 01:10:23;;;;;;;12.10;10.80;;;;;;;12.70;100.00;100402.34;5033724;28;20129;-71
2021/09/18 01:13:15;;;;;;;16.50;11.25;;;;;;;12.67;100.00;100396.47;5034155;28;20571;-71
2021/09/18 01:15:58;;;;;;;13.88;11.10;;;;;;;12.68;100.00;100396.31;5033800;28;20052;-71
2021/09/18 01:18:42;;;;;;;12.57;10.98;;;;;;;12.68;100.00;100398.19;5035012;28;20135;-71
2021/09/18 01:21:26;;;;;;;17.17;11.77;;;;;;;12.62;100.00;100402.28;5033935;28;20458;-71
2021/09/18 01:24:10;;;;;;;12.82;10.73;;;;;;;12.59;100.00;100396.41;5019935;28;20484;-69
2021/09/18 01:26:54;;;;;;;14.00;10.73;;;;;;;12.55;100.00;100395.88;5034856;28;20423;-71
2021/09/18 01:29:38;;;;;;;15.05;10.45;;;;;;;12.52;100.00;100395.34;5033916;28;20099;-70
2021/09/18 01:32:22;;;;;;;17.13;11.10;;;;;;;12.51;100.00;100399.03;5034466;28;20127;-71
2021/09/18 01:35:06;;;;;;;16.15;10.82;;;;;;;12.49;100.00;100396.47;5034709;28;20048;-71
2021/09/18 01:37:50;;;;;;;12.18;10.30;;;;;;;12.46;100.00;100403.97;5033362;28;20098;-71
2021/09/18 01:40:46;;;;;;;12.27;10.63;;;;;;;12.41;100.00;100401.75;5034148;28;20044;-71
2021/09/18 01:43:30;;;;;;;15.20;11.25;;;;;;;12.38;100.00;100394.03;5019308;28;20105;-71
2021/09/18 01:46:13;;;;;;;13.60;10.15;;;;;;;12.36;100.00;100401.38;5034249;28;20056;-72
2021/09/18 01:48:57;;;;;;;16.50;10.85;;;;;;;12.31;100.00;100395.63;5019097;28;20043;-71
2021/09/18 01:51:43;;;;;;;15.07;11.38;;;;;;;12.29;100.00;100402.97;5019312;28;20063;-71
2021/09/18 01:54:28;;;;;;;14.30;11.07;;;;;;;12.29;100.00;100397.63;5019162;28;20100;-71
2021/09/18 01:57:12;;;;;;;13.40;10.32;;;;;;;12.26;100.00;100392.59;5019458;28;20044;-72
2021/09/18 01:59:56;;;;;;;12.73;9.43;;;;;;;12.24;100.00;100396.41;5005216;28;20550;-71
2021/09/18 02:02:40;;;;;;;13.77;11.32;;;;;;;12.22;100.00;100398.38;5034185;28;20102;-71
2021/09/18 02:05:26;;;;;;;14.40;11.85;;;;;;;12.19;100.00;100396.84;5019191;28;20469;-71
2021/09/18 02:08:10;;;;;;;19.02;11.85;;;;;;;12.14;100.00;100391.13;5018904;28;20056;-71
2021/09/18 02:10:55;;;;;;;14.23;12.30;;;;;;;12.13;100.00;100394.81;5019030;28;20095;-71
2021/09/18 02:13:39;;;;;;;17.23;12.57;;;;;;;12.13;100.00;100386.78;5019053;28;20088;-71
2021/09/18 02:16:23;;;;;;;16.55;12.40;;;;;;;12.15;100.00;100390.13;5018637;28;20071;-72
2021/09/18 02:19:07;;;;;;;18.98;13.00;;;;;;;12.17;100.00;100388.16;5018856;28;20106;-72
2021/09/18 02:21:51;;;;;;;19.48;14.50;;;;;;;12.21;100.00;100384.16;5033050;28;20124;-69
2021/09/18 02:24:35;;;;;;;34.65;16.88;;;;;;;12.27;100.00;100386.25;5033079;28;20048;-71
2021/09/18 02:27:19;;;;;;;29.42;17.33;;;;;;;12.32;100.00;100392.00;5004766;28;20067;-71
2021/09/18 02:30:05;;;;;;;29.13;17.92;;;;;;;12.36;100.00;100396.03;5033675;28;20095;-71
2021/09/18 02:32:49;;;;;;;50.58;18.33;;;;;;;12.42;100.00;100389.22;5018720;28;20052;-72
2021/09/18 02:35:34;;;;;;;42.22;17.63;;;;;;;12.43;100.00;100389.09;5018946;28;20064;-71
2021/09/18 02:38:18;;;;;;;29.13;17.13;;;;;;;12.42;100.00;100392.75;5004722;28;20491;-71
2021/09/18 02:41:02;;;;;;;28.05;16.60;;;;;;;12.38;100.00;100388.69;5029093;28;20557;-71
2021/09/18 02:43:46;;;;;;;25.98;15.75;;;;;;;12.38;100.00;100386.03;5032274;28;20515;-71
2021/09/18 02:46:30;;;;;;;27.45;16.85;;;;;;;12.38;100.00;100380.69;5145765;23;20126;-71
2021/09/18 02:49:14;;;;;;;;;;;;;;;12.36;100.00;100385.34;4993500;28;20105;-70
2021/09/18 02:51:58;;;;;;;19.00;14.65;;;;;;;12.33;100.00;100393.69;4979935;28;20291;-71
2021/09/18 02:54:42;;;;;;;19.15;13.52;;;;;;;12.27;100.00;100388.91;4993102;28;20045;-71
2021/09/18 02:57:26;;;;;;;16.83;12.88;;;;;;;12.23;100.00;100392.91;4991865;28;20416;-72
2021/09/18 03:00:11;;;;;;;19.60;13.35;;;;;;;12.19;100.00;100391.50;4984920;28;20053;-72
2021/09/18 03:02:56;;;;;;;17.08;13.57;;;;;;;12.19;100.00;100388.00;4984723;28;20052;-71
2021/09/18 03:05:40;;;;;;;19.00;13.68;;;;;;;12.18;100.00;100384.47;4998767;28;20096;-71
2021/09/18 03:08:24;;;;;;;24.98;15.18;;;;;;;12.18;100.00;100378.31;4985211;28;20120;-71
2021/09/18 03:11:08;;;;;;;22.80;15.15;;;;;;;12.19;100.00;100374.66;4985016;28;20091;-70
2021/09/18 03:13:51;;;;;;;23.63;15.75;;;;;;;12.11;100.00;100380.75;5013322;28;20095;-70
2021/09/18 03:16:35;;;;;;;19.52;14.65;;;;;;;12.06;100.00;100376.81;4998564;28;20045;-71
2021/09/18 03:19:20;;;;;;;19.17;14.27;;;;;;;12.03;100.00;100378.00;4998539;28;20060;-70
2021/09/18 03:22:04;;;;;;;17.98;12.52;;;;;;;12.01;100.00;100384.47;4984802;28;20065;-71
2021/09/18 03:24:49;;;;;;;21.38;14.30;;;;;;;11.94;100.00;100368.22;4998605;28;20077;-70
2021/09/18 03:27:33;;;;;;;15.18;12.60;;;;;;;11.92;100.00;100370.19;4998216;28;20049;-71
2021/09/18 03:30:17;;;;;;;19.33;13.13;;;;;;;11.94;100.00;100373.53;4984748;28;20069;-71
2021/09/18 03:33:00;;;;;;;19.42;13.45;;;;;;;11.95;100.00;100372.56;5016412;28;20180;-70
2021/09/18 03:35:44;;;;;;;16.42;11.63;;;;;;;11.95;100.00;100369.88;4988398;28;20631;-71
2021/09/18 03:38:28;;;;;;;17.70;13.23;;;;;;;11.95;100.00;100367.22;5002001;28;20527;-70
2021/09/18 03:41:12;;;;;;;15.77;13.02;;;;;;;11.98;100.00;100366.91;5001948;28;20563;-71
2021/09/18 03:43:56;;;;;;;18.20;13.73;;;;;;;11.96;100.00;100363.53;5017074;28;20519;-71
2021/09/18 03:46:40;;;;;;;19.67;13.38;;;;;;;11.94;100.00;100364.69;5001732;28;20116;-71
2021/09/18 03:49:23;;;;;;;16.17;13.10;;;;;;;11.96;100.00;100374.22;5001892;28;20634;-70
2021/09/18 03:52:07;;;;;;;17.13;12.95;;;;;;;11.96;100.00;100363.53;5017021;28;20069;-71
2021/09/18 03:54:55;;;;;;;14.65;12.68;;;;;;;11.98;100.00;100377.59;5002033;28;20618;-70
2021/09/18 03:57:39;;;;;;;16.00;12.60;;;;;;;11.98;100.00;100369.56;5001774;28;20424;-70
2021/09/18 04:00:23;;;;;;;17.98;13.25;;;;;;;12.00;100.00;100364.91;4988209;28;20048;-71
2021/09/18 04:03:07;;;;;;;16.73;13.05;;;;;;;12.03;100.00;100374.47;5016943;28;20562;-71
2021/09/18 04:05:51;;;;;;;19.15;12.85;;;;;;;12.03;100.00;100375.31;5001962;28;20052;-71
2021/09/18 04:08:35;;;;;;;15.75;12.93;;;;;;;12.05;100.00;100369.81;5001827;28;20053;-71
2021/09/18 04:11:19;;;;;;;16.30;12.48;;;;;;;12.08;100.00;100373.03;5001457;28;20105;-71
2021/09/18 04:14:02;;;;;;;16.17;12.75;;;;;;;12.08;100.00;100370.34;4988355;28;20103;-70
2021/09/18 04:16:47;;;;;;;14.73;12.68;;;;;;;12.10;100.00;100375.56;5001594;28;20133;-71
2021/09/18 04:19:30;;;;;;;23.15;13.68;;;;;;;12.07;100.00;100382.03;5016458;28;20063;-70
2021/09/18 04:22:14;;;;;;;17.33;13.02;;;;;;;12.08;100.00;100383.72;4987587;28;20524;-71
2021/09/18 04:24:58;;;;;;;18.10;13.15;;;;;;;12.11;100.00;100391.44;4987718;28;20420;-71
2021/09/18 04:27:43;;;;;;;18.55;13.75;;;;;;;12.16;100.00;100397.16;5001565;28;20048;-71
2021/09/18 04:30:27;;;;;;;13.75;11.75;;;;;;;12.16;100.00;100396.31;5001538;28;20045;-70
2021/09/18 04:33:11;;;;;;;18.88;13.73;;;;;;;12.19;100.00;100391.50;5015948;28;20132;-71
2021/09/18 04:35:55;;;;;;;16.50;13.23;;;;;;;12.18;100.00;100399.69;4987700;28;20129;-71
2021/09/18 04:38:39;;;;;;;15.82;13.60;;;;;;;12.19;100.00;100396.84;5001248;28;20049;-71
2021/09/18 04:41:23;;;;;;;14.73;12.18;;;;;;;12.21;100.00;100394.88;4987076;28;20049;-70
2021/09/18 04:44:07;;;;;;;25.60;12.75;;;;;;;12.22;100.00;100385.88;4999959;28;20048;-71
2021/09/18 04:46:51;;;;;;;16.38;13.13;;;;;;;12.21;100.00;100391.38;4987093;28;20040;-71
2021/09/18 04:49:35;;;;;;;18.63;14.00;;;;;;;12.21;100.00;100386.84;5015684;28;20049;-71
2021/09/18 04:52:19;;;;;;;29.40;14.27;;;;;;;12.21;100.00;100394.88;5015831;28;20548;-70
2021/09/18 04:55:04;;;;;;;22.65;13.70;;;;;;;12.18;100.00;100389.84;5015757;28;20103;-71
2021/09/18 04:57:48;;;;;;;23.88;12.95;;;;;;;12.15;100.00;100400.84;5000859;28;20048;-70
2021/09/18 05:00:32;;;;;;;20.05;13.40;;;;;;;12.11;100.00;100402.13;4987004;28;20056;-70
2021/09/18 05:03:15;;;;;;;15.93;13.35;;;;;;;12.10;100.00;100408.44;5015553;28;20053;-68
2021/09/18 05:05:59;;;;;;;15.48;13.20;;;;;;;12.09;100.00;100409.44;5000578;28;20499;-71
2021/09/18 05:08:43;;;;;;;16.83;14.27;;;;;;;12.08;100.00;100407.75;5000525;28;20087;-71
2021/09/18 05:11:27;;;;;;;21.80;15.50;;;;;;;12.08;100.00;100410.44;5000353;28;20121;-71
2021/09/18 05:14:11;;;;;;;22.27;13.35;;;;;;;12.06;100.00;100415.09;5000563;28;20052;-71
2021/09/18 05:16:55;;;;;;;33.13;14.77;;;;;;;12.05;100.00;100417.91;5000782;28;20052;-71
2021/09/18 05:19:39;;;;;;;20.90;13.27;;;;;;;12.03;100.00;100418.06;5000195;28;20556;-70
2021/09/18 05:22:23;;;;;;;20.52;14.15;;;;;;;12.02;100.00;100423.56;5000450;28;20060;-70
2021/09/18 05:25:07;;;;;;;15.00;13.05;;;;;;;12.01;100.00;100417.38;5015268;28;20057;-71
2021/09/18 05:27:51;;;;;;;15.68;12.60;;;;;;;12.01;100.00;100414.72;5000112;28;20091;-70
2021/09/18 05:30:35;;;;;;;18.75;13.35;;;;;;;11.98;100.00;100425.69;5000435;28;20117;-70
2021/09/18 05:33:19;;;;;;;19.92;12.95;;;;;;;11.97;100.00;100415.97;5000877;28;20501;-71
2021/09/18 05:36:03;;;;;;;16.35;13.40;;;;;;;11.97;100.00;100429.34;5014767;28;20128;-71
2021/09/18 05:38:47;;;;;;;18.85;13.73;;;;;;;12.01;100.00;100422.72;5000305;28;20104;-70
2021/09/18 05:41:31;;;;;;;16.55;13.63;;;;;;;12.00;100.00;100429.03;5000023;28;20153;-70
2021/09/18 05:44:15;;;;;;;21.10;13.52;;;;;;;12.00;100.00;100437.06;5014785;28;20125;-71
2021/09/18 05:46:59;;;;;;;17.65;13.85;;;;;;;12.03;100.00;100435.91;4999455;28;20503;-71
2021/09/18 05:49:43;;;;;;;18.92;13.18;;;;;;;12.07;100.00;100435.47;4986358;28;20056;-71
2021/09/18 05:52:27;;;;;;;17.00;12.60;;;;;;;12.10;100.00;100434.34;4999858;28;20053;-71
2021/09/18 05:55:11;;;;;;;19.10;14.50;;;;;;;12.09;100.00;100433.50;5014611;28;20128;-69
2021/09/18 05:57:55;;;;;;;17.50;13.77;;;;;;;12.15;100.00;100432.03;4999420;28;20056;-71
2021/09/18 06:00:39;;;;;;;16.88;13.18;;;;;;;12.19;100.00;100433.44;4985817;28;20092;-71
2021/09/18 06:03:23;;;;;;;16.70;13.77;;;;;;;12.21;100.00;100440.31;5014733;28;20045;-70
2021/09/18 06:06:07;;;;;;;18.65;14.43;;;;;;;12.24;100.00;100445.38;4999382;28;20057;-70
2021/09/18 06:08:50;;;;;;;18.17;14.43;;;;;;;12.27;100.00;100436.22;5014332;28;20137;-71
2021/09/18 06:11:34;;;;;;;16.30;13.93;;;;;;;12.27;100.00;100434.38;4999250;28;20065;-70
2021/09/18 06:14:18;;;;;;;18.30;13.50;;;;;;;12.32;100.00;100437.44;4999737;28;20145;-71
2021/09/18 06:17:02;;;;;;;18.33;13.35;;;;;;;12.36;100.00;100433.47;4985402;28;20060;-71
2021/09/18 06:19:46;;;;;;;20.35;14.25;;;;;;;12.40;100.00;100432.16;4999061;28;20068;-71
2021/09/18 06:22:30;;;;;;;18.25;14.20;;;;;;;12.47;100.00;100432.38;4985908;28;20052;-70
2021/09/18 06:25:15;;;;;;;20.38;14.52;;;;;;;12.55;100.00;100444.03;4999565;28;20091;-70
2021/09/18 06:27:59;;;;;;;20.98;14.02;;;;;;;12.60;100.00;100439.03;4985455;28;20137;-71
2021/09/18 06:30:43;;;;;;;18.63;14.23;;;;;;;12.65;100.00;100446.59;4999281;28;20077;-71
2021/09/18 06:33:27;;;;;;;18.65;14.43;;;;;;;12.71;100.00;100452.19;4998865;28;20092;-70
2021/09/18 06:36:11;;;;;;;17.52;14.27;;;;;;;12.77;100.00;100456.94;4999264;28;20180;-71
2021/09/18 06:38:55;;;;;;;20.30;14.40;;;;;;;12.84;100.00;100458.00;4999170;28;20173;-71
2021/09/18 06:41:39;;;;;;;17.00;14.55;;;;;;;12.92;100.00;100450.03;4999023;28;20084;-71
2021/09/18 06:44:23;;;;;;;19.85;15.23;;;;;;;12.98;100.00;100449.44;4984995;28;20104;-72
2021/09/18 06:47:07;;;;;;;23.63;13.63;;;;;;;13.06;100.00;100452.19;4998929;28;20045;-70
2021/09/18 06:49:51;;;;;;;15.73;13.27;;;;;;;13.19;100.00;100448.13;4998682;28;20427;-70
2021/09/18 06:52:35;;;;;;;20.77;14.82;;;;;;;13.24;100.00;100448.47;4998857;28;20048;-71
2021/09/18 06:55:20;;;;;;;18.67;13.57;;;;;;;13.28;100.00;100447.16;4998659;28;20531;-71
2021/09/18 06:58:04;;;;;;;18.30;14.85;;;;;;;13.39;100.00;100451.44;5013910;28;20133;-70
2021/09/18 07:00:48;;;;;;;17.05;14.35;;;;;;;13.51;100.00;100447.47;4998495;28;20448;-71
2021/09/18 07:03:33;;;;;;;20.83;15.13;;;;;;;13.61;100.00;100450.88;4998821;28;20053;-71
2021/09/18 07:06:20;;;;;;;18.40;14.73;;;;;;;13.72;100.00;100455.97;5000288;28;20045;-71
2021/09/18 07:09:04;;;;;;;19.75;15.30;;;;;;;13.87;100.00;100457.88;4992110;28;20104;-71
2021/09/18 07:11:48;;;;;;;19.30;14.60;;;;;;;14.00;100.00;100452.09;5005048;28;20049;-70
2021/09/18 07:14:32;;;;;;;17.58;14.05;;;;;;;14.11;100.00;100462.50;5004965;28;20048;-71
2021/09/18 07:17:16;;;;;;;19.90;13.38;;;;;;;14.17;100.00;100461.91;5004814;28;20140;-71
2021/09/18 07:20:00;;;;;;;21.20;14.98;;;;;;;14.25;100.00;100460.09;5005184;28;20052;-71
2021/09/18 07:22:44;;;;;;;16.75;13.65;;;;;;;14.32;100.00;100455.75;5005199;28;20100;-70
2021/09/18 07:25:28;;;;;;;18.58;14.25;;;;;;;14.43;100.00;100458.13;5005122;28;20053;-71
2021/09/18 07:28:12;;;;;;;17.60;13.68;;;;;;;14.51;100.00;100458.13;5019689;28;20057;-71
2021/09/18 07:30:56;;;;;;;21.92;15.15;;;;;;;14.62;100.00;100462.34;4991533;28;20507;-71
2021/09/18 07:33:40;;;;;;;21.58;16.17;;;;;;;14.74;100.00;100458.34;5005133;28;20581;-71
2021/09/18 07:36:24;;;;;;;20.55;15.32;;;;;;;14.88;100.00;100460.38;4991155;28;20104;-71
2021/09/18 07:39:07;;;;;;;22.00;16.35;;;;;;;15.00;100.00;100451.00;4991410;28;20087;-71
2021/09/18 07:41:51;;;;;;;26.35;17.48;;;;;;;15.11;100.00;100462.22;5020187;28;20045;-71
2021/09/18 07:44:35;;;;;;;19.00;15.30;;;;;;;15.22;100.00;100455.66;5019784;28;20049;-71
2021/09/18 07:47:19;;;;;;;19.88;15.27;;;;;;;15.36;100.00;100457.69;5019481;28;20072;-71
2021/09/18 07:50:04;;;;;;;20.17;14.77;;;;;;;15.44;100.00;100463.06;5019775;28;20128;-71
2021/09/18 07:52:49;;;;;;;22.73;15.15;;;;;;;15.51;100.00;100467.56;5019477;28;20095;-70
2021/09/18 07:55:33;;;;;;;18.92;14.40;;;;;;;15.57;100.00;100470.41;5004945;28;20052;-71
2021/09/18 07:58:17;;;;;;;;;;;;;;;15.64;100.00;100468.72;5004882;28;20053;-71
2021/09/18 08:01:01;;;;;;;20.60;14.63;;;;;;;15.74;100.00;100469.38;4990853;28;20016;-69
2021/09/18 08:03:45;;;;;;;20.50;15.32;;;;;;;15.84;100.00;100464.63;5004731;28;20266;-71
2021/09/18 08:06:29;;;;;;;20.50;15.68;;;;;;;15.96;100.00;100468.63;5004419;28;20476;-71
2021/09/18 08:09:13;;;;;;;21.20;15.35;;;;;;;16.05;100.00;100470.28;4990951;28;20052;-71
2021/09/18 08:11:58;;;;;;;18.85;15.07;;;;;;;16.09;100.00;100468.09;5004603;28;20119;-71
2021/09/18 08:14:42;;;;;;;18.98;14.65;;;;;;;16.14;100.00;100469.22;5004919;28;20099;-71
2021/09/18 08:17:27;;;;;;;18.40;14.98;;;;;;;16.22;100.00;100473.72;5003803;28;20416;-71
2021/09/18 08:20:12;;;;;;;14.63;11.18;;;;;;;16.34;100.00;100472.31;5016269;28;20053;-72
2021/09/18 08:22:56;;;;;;;19.30;14.52;;;;;;;16.44;100.00;100468.44;5001416;28;20068;-71
2021/09/18 08:25:40;;;;;;;19.35;14.30;;;;;;;16.64;100.00;100464.28;5001435;28;20061;-71
2021/09/18 08:28:24;;;;;;;17.15;13.23;;;;;;;16.75;100.00;100471.94;5001709;28;20141;-71
2021/09/18 08:31:08;;;;;;;18.33;12.63;;;;;;;16.86;100.00;100466.16;5001165;28;20121;-71
2021/09/18 08:33:53;;;;;;;16.75;12.38;;;;;;;16.95;100.00;100467.75;5001314;28;20048;-70
2021/09/18 08:36:37;;;;;;;16.17;11.95;;;;;;;17.09;100.00;100469.66;4987532;28;20523;-71
2021/09/18 08:39:21;;;;;;;16.38;12.93;;;;;;;17.22;100.00;100466.38;5016064;28;20111;-71
2021/09/18 08:42:07;;;;;;;16.88;13.35;;;;;;;17.35;100.00;100453.09;5001139;28;20483;-71
2021/09/18 08:44:50;;;;;;;16.25;12.70;;;;;;;17.56;100.00;100458.66;4987451;28;20071;-71
2021/09/18 08:47:35;;;;;;;16.65;13.18;;;;;;;17.69;100.00;100454.28;5000705;28;20076;-71
2021/09/18 08:50:21;;;;;;;17.30;12.98;;;;;;;17.83;99.92;100453.44;5002592;28;20464;-72
2021/09/18 08:53:05;;;;;;;15.95;12.15;;;;;;;18.00;96.78;100454.13;5001061;28;20049;-71
2021/09/18 08:55:56;;;;;;;15.18;12.20;;;;;;;18.13;95.41;100454.28;4987323;28;20108;-71
2021/09/18 08:58:40;;;;;;;17.25;11.73;;;;;;;18.36;96.22;100455.03;5000826;28;20083;-72
2021/09/18 09:01:26;;;;;;;15.13;11.95;;;;;;;18.38;94.72;100454.63;5015637;28;20049;-72
2021/09/18 09:04:10;;;;;;;13.50;10.70;;;;;;;18.67;94.23;100448.34;4987351;28;20116;-69
2021/09/18 09:06:54;;;;;;;16.63;11.05;;;;;;;18.91;91.16;100453.34;5000359;28;20095;-71
2021/09/18 09:09:56;;;;;;;14.70;10.07;;;;;;;19.18;90.12;100450.72;5000667;28;20057;-71
2021/09/18 09:12:40;;;;;;;11.95;8.60;;;;;;;19.48;89.84;100440.59;5000404;28;20195;-71
2021/09/18 09:15:24;;;;;;;9.18;8.25;;;;;;;19.75;84.74;100439.72;5000493;28;20187;-71
2021/09/18 09:18:14;;;;;;;9.32;8.07;;;;;;;20.12;80.26;100447.47;5000478;28;20088;-71
2021/09/18 09:21:17;;;;;;;9.48;8.30;;;;;;;20.50;79.46;100448.66;5015413;28;20137;-72
2021/09/18 09:24:12;;;;;;;11.38;8.00;;;;;;;20.96;76.99;100446.91;5000224;28;20081;-71
2021/09/18 09:27:10;;;;;;;10.50;7.63;;;;;;;21.50;72.88;100441.06;4986598;28;20052;-72
2021/09/18 09:29:57;;;;;;;11.82;7.25;;;;;;;22.25;70.29;100438.66;4999925;28;20091;-72
2021/09/18 09:32:43;;;;;;;8.02;6.38;;;;;;;23.17;62.52;100438.97;5000312;28;20052;-69
2021/09/18 09:35:27;;;;;;;8.05;5.95;;;;;;;25.22;56.01;100441.41;5015039;28;20064;-69
2021/09/18 09:38:11;;;;;;;;;;;;;;;27.97;48.91;100430.59;5000261;28;20096;-69
2021/09/18 09:40:55;;;;;;;9.50;5.80;;;;;;;30.62;40.84;100433.88;5000007;28;19939;-70
2021/09/18 09:43:44;;;;;;;7.80;5.05;;;;;;;32.92;36.14;100423.38;5000058;28;20053;-70
2021/09/18 09:46:28;;;;;;;5.95;4.85;;;;;;;34.67;33.26;100427.97;5014360;28;20424;-69
2021/09/18 09:49:15;;;;;;;5.45;4.75;;;;;;;35.92;30.24;100425.97;4999841;28;20419;-71
2021/09/18 09:52:16;;;;;;;5.35;4.80;;;;;;;37.53;27.02;100424.94;4999577;28;20125;-70
2021/09/18 09:55:10;;;;;;;5.18;4.68;;;;;;;37.76;26.39;100426.53;4999593;28;20052;-70
2021/09/18 09:57:58;;;;;;;6.10;5.50;;;;;;;38.42;25.92;100426.38;4985866;28;20182;-70
2021/09/18 10:00:47;;;;;;;5.75;5.05;;;;;;;39.28;25.29;100421.75;5014380;28;20137;-70
2021/09/18 10:03:31;;;;;;;4.47;4.07;;;;;;;39.93;23.75;100418.38;5014444;28;20045;-70
2021/09/18 10:06:17;;;;;;;5.30;4.80;;;;;;;40.71;23.36;100416.84;4999031;28;20107;-70
2021/09/18 10:09:01;;;;;;;5.30;4.80;;;;;;;40.42;22.93;100420.44;4985734;28;20095;-70
2021/09/18 10:11:45;;;;;;;5.93;4.13;;;;;;;40.88;22.25;100411.94;4999166;28;20467;-70
2021/09/18 10:14:31;;;;;;;4.25;3.95;;;;;;;41.02;21.75;100418.09;4999351;28;20103;-70
2021/09/18 10:17:16;;;;;;;5.05;3.95;;;;;;;41.16;21.47;100415.88;4985529;28;20053;-70
2021/09/18 10:20:04;;;;;;;4.35;3.80;;;;;;;41.70;21.30;100411.91;4999438;28;20052;-70
2021/09/18 10:25:58;;;;;;;3.80;3.50;;;;;;;42.39;20.33;100406.25;5001865;28;20088;-70
2021/09/18 10:28:46;;;;;;;3.70;3.40;;;;;;;42.46;20.30;100407.31;4998811;28;20096;-70
2021/09/18 10:31:30;;;;;;;4.65;4.25;;;;;;;42.51;19.57;100404.31;4998939;28;20096;-71
2021/09/18 10:34:21;;;;;;;5.00;4.50;;;;;;;42.59;20.03;100406.16;4998774;28;20049;-70
2021/09/18 10:37:06;;;;;;;4.10;3.80;;;;;;;42.66;19.93;100400.75;4984922;28;20096;-70
2021/09/18 10:40:04;;;;;;;4.35;3.95;;;;;;;42.98;19.68;100396.97;4985267;28;20077;-70
2021/09/18 10:42:50;;;;;;;4.00;3.25;;;;;;;43.24;19.00;100395.38;4998200;28;20434;-71
2021/09/18 10:45:39;;;;;;;4.53;3.28;;;;;;;43.26;19.56;100389.38;4998741;28;20560;-70
2021/09/18 10:48:36;;;;;;;5.70;3.90;;;;;;;42.97;19.85;100386.91;4998563;28;20049;-70
2021/09/18 10:51:39;;;;;;;4.72;4.43;;;;;;;42.56;19.47;100392.84;5013593;28;20092;-71
2021/09/18 10:54:23;;;;;;;4.43;3.55;;;;;;;42.55;20.11;100382.78;4998750;28;20053;-70
2021/09/18 10:57:07;;;;;;;5.38;3.83;;;;;;;42.95;19.59;100386.47;4998410;28;20053;-71
2021/09/18 10:59:51;;;;;;;4.32;3.85;;;;;;;42.94;19.65;100388.47;4998503;28;20470;-71
2021/09/18 11:02:35;;;;;;;4.28;3.75;;;;;;;43.47;18.93;100384.38;4998864;28;20488;-71
2021/09/18 11:05:22;;;;;;;3.97;3.60;;;;;;;43.89;18.68;100382.72;4998696;28;20527;-71
2021/09/18 11:08:15;;;;;;;6.63;3.72;;;;;;;44.00;18.15;100379.03;5013204;28;20048;-71
2021/09/18 11:11:03;;;;;;;5.30;4.20;;;;;;;42.73;18.68;100379.38;5013044;28;20048;-71
2021/09/18 11:13:47;;;;;;;4.30;3.90;;;;;;;43.23;18.86;100378.88;4998663;28;20060;-71
2021/09/18 11:16:36;;;;;;;6.40;4.30;;;;;;;41.47;20.00;100377.06;4998398;28;20416;-71
2021/09/18 11:19:20;;;;;;;6.50;4.13;;;;;;;41.43;20.45;100364.91;4998554;28;20057;-70
2021/09/18 11:22:11;;;;;;;3.95;3.58;;;;;;;41.81;19.96;100364.66;5013359;28;20088;-71
2021/09/18 11:25:34;;;;;;;4.25;3.95;;;;;;;41.96;19.82;100356.38;4998148;28;20095;-71
2021/09/18 11:28:18;;;;;;;3.80;3.50;;;;;;;42.56;19.60;100355.59;5012746;28;20088;-70
2021/09/18 11:31:08;;;;;;;3.97;3.65;;;;;;;42.71;18.49;100356.47;4998269;28;20104;-70
2021/09/18 11:33:53;;;;;;;4.05;3.40;;;;;;;43.59;18.97;100361.84;4998104;28;20049;-70
2021/09/18 11:36:44;;;;;;;4.13;3.45;;;;;;;44.16;18.40;100360.19;5013148;28;20462;-71
2021/09/18 11:39:40;;;;;;;4.03;3.60;;;;;;;43.50;18.42;100347.19;4998466;28;20048;-70
2021/09/18 11:42:39;;;;;;;3.70;3.40;;;;;;;43.21;18.16;100351.16;4998337;28;20069;-71
2021/09/18 11:45:24;;;;;;;4.57;3.58;;;;;;;42.33;18.72;100346.03;4998047;28;20048;-71
2021/09/18 11:48:09;;;;;;;3.80;3.50;;;;;;;43.09;18.63;100342.81;4997902;28;20053;-71
2021/09/18 11:50:53;;;;;;;4.03;3.63;;;;;;;43.03;18.45;100343.44;4998234;28;20079;-71
2021/09/18 11:53:36;;;;;;;3.58;3.28;;;;;;;43.45;18.14;100350.25;5000156;28;20160;-70
2021/09/18 11:56:20;;;;;;;4.15;3.78;;;;;;;42.91;18.80;100347.09;5001676;28;20056;-71
2021/09/18 11:59:11;;;;;;;3.75;3.45;;;;;;;42.84;18.73;100335.66;5002073;28;20052;-71
2021/09/18 12:01:55;;;;;;;3.83;3.42;;;;;;;42.59;19.16;100333.28;5001546;28;20049;-71
2021/09/18 12:04:44;;;;;;;3.45;3.15;;;;;;;41.81;19.13;100339.47;5001479;28;20053;-71
2021/09/18 12:07:28;;;;;;;3.50;3.20;;;;;;;40.95;19.91;100330.34;5016539;28;20543;-70
2021/09/18 12:10:15;;;;;;;3.38;3.08;;;;;;;41.03;20.06;100318.25;5001746;28;20567;-71
2021/09/18 12:13:00;;;;;;;3.22;3.00;;;;;;;40.50;20.35;100319.00;5002041;28;20558;-71
2021/09/18 12:15:45;;;;;;;4.43;3.10;;;;;;;41.23;19.45;100317.38;5001619;28;20188;-71
2021/09/18 12:18:45;;;;;;;2.90;2.70;;;;;;;41.83;19.01;100317.53;5001599;28;20080;-71
2021/09/18 12:21:33;;;;;;;3.67;2.92;;;;;;;41.29;19.42;100321.59;4987428;28;20104;-71
2021/09/18 12:24:19;;;;;;;3.47;3.17;;;;;;;41.45;19.24;100314.19;5016034;28;20052;-71
2021/09/18 12:27:42;;;;;;;3.53;3.20;;;;;;;41.09;19.74;100306.50;5000982;28;20120;-71
2021/09/18 12:30:36;;;;;;;3.95;3.00;;;;;;;41.03;19.81;100321.06;4955610;29;20133;-71
2021/09/18 12:33:33;;;;;;;3.15;2.85;;;;;;;41.56;19.33;100305.00;4942019;29;20525;-71
2021/09/18 12:36:24;;;;;;;3.00;2.80;;;;;;;41.76;19.34;100301.34;5001020;28;20136;-71